sensor_id;sensor_type;location;lat;lon;timestamp;pressure;altitude;pressure_sealevel;temperature;humidity
4123;BME280;2075;51.062;6.920;2023-01-31T00:01:11;49371.94;;;-144.48;100.00
4123;BME280;2075;51.062;6.920;2023-01-31T00:03:59;48858.66;;;-144.48;100.00
4123;BME280;2075;51.062;6.920;2023-01-31T00:06:44;47832.31;;;-144.48;100.00
4123;BME280;2075;51.062;6.920;2023-01-31T00:09:34;50142.03;;;-144.48;100.00
4123;BME280;2075;51.062;6.920;2023-01-31T00:12:19;49628.63;;;-144.48;100.00
4123;BME280;2075;51.062;6.920;2023-01-31T00:15:05;50398.75;;;-144.48;100.00
4123;BME280;2075;51.062;6.920;2023-01-31T00:17:53;51425.88;;;-144.48;100.00
4123;BME280;2075;51.062;6.920;2023-01-31T00:20:38;50912.28;;;-144.48;100.00
4123;BME280;2075;51.062;6.920;2023-01-31T00:23:24;49885.31;;;-144.48;100.00
4123;BME280;2075;51.062;6.920;2023-01-31T00:26:11;49628.63;;;-144.48;100.00
4123;BME280;2075;51.062;6.920;2023-01-31T00:28:59;48345.44;;;-144.48;100.00
4123;BME280;2075;51.062;6.920;2023-01-31T00:31:45;48088.88;;;-144.48;100.00
4123;BME280;2075;51.062;6.920;2023-01-31T00:34:32;48088.88;;;-144.48;100.00
4123;BME280;2075;51.062;6.920;2023-01-31T00:37:17;50142.03;;;-144.48;100.00
4123;BME280;2075;51.062;6.920;2023-01-31T00:40:03;48345.44;;;-144.48;100.00
4123;BME280;2075;51.062;6.920;2023-01-31T00:42:49;48088.88;;;-144.48;100.00
4123;BME280;2075;51.062;6.920;2023-01-31T00:45:34;48088.88;;;-144.48;100.00
4123;BME280;2075;51.062;6.920;2023-01-31T00:48:20;44755.16;;;-144.48;100.00
4123;BME280;2075;51.062;6.920;2023-01-31T00:51:07;44242.59;;;-144.48;100.00
4123;BME280;2075;51.062;6.920;2023-01-31T00:53:54;44498.88;;;-144.48;100.00
4123;BME280;2075;51.062;6.920;2023-01-31T00:56:39;42449.16;;;-144.48;100.00
4123;BME280;2075;51.062;6.920;2023-01-31T00:59:26;40144.72;;;-144.48;100.00
4123;BME280;2075;51.062;6.920;2023-01-31T01:02:12;39376.91;;;-144.48;100.00
4123;BME280;2075;51.062;6.920;2023-01-31T01:04:57;38609.28;;;-144.48;100.00
4123;BME280;2075;51.062;6.920;2023-01-31T01:07:44;36563.16;;;-144.48;100.00
4123;BME280;2075;51.062;6.920;2023-01-31T01:10:29;36818.88;;;-144.48;100.00
4123;BME280;2075;51.062;6.920;2023-01-31T01:13:15;35284.97;;;-144.48;100.00
4123;BME280;2075;51.062;6.920;2023-01-31T01:16:04;34518.28;;;-144.48;100.00
4123;BME280;2075;51.062;6.920;2023-01-31T01:18:50;35284.97;;;-144.48;100.00
4123;BME280;2075;51.062;6.920;2023-01-31T01:21:38;35029.38;;;-144.48;100.00
4123;BME280;2075;51.062;6.920;2023-01-31T01:24:26;38097.66;;;-144.48;100.00
4123;BME280;2075;51.062;6.920;2023-01-31T01:27:12;39121.03;;;-144.48;100.00
4123;BME280;2075;51.062;6.920;2023-01-31T01:29:57;40400.69;;;-144.48;100.00
4123;BME280;2075;51.062;6.920;2023-01-31T01:32:43;40400.69;;;-144.48;100.00
4123;BME280;2075;51.062;6.920;2023-01-31T01:35:32;40656.66;;;-144.48;100.00
4123;BME280;2075;51.062;6.920;2023-01-31T01:38:17;40912.69;;;-144.48;100.00
4123;BME280;2075;51.062;6.920;2023-01-31T01:41:06;42193.03;;;-144.48;100.00
4123;BME280;2075;51.062;6.920;2023-01-31T01:43:53;40912.69;;;-144.48;100.00
4123;BME280;2075;51.062;6.920;2023-01-31T01:46:41;40144.72;;;-144.48;100.00
4123;BME280;2075;51.062;6.920;2023-01-31T01:49:32;39376.91;;;-144.48;100.00
4123;BME280;2075;51.062;6.920;2023-01-31T01:52:19;40656.66;;;-144.48;100.00
4123;BME280;2075;51.062;6.920;2023-01-31T01:55:11;43217.66;;;-144.48;100.00
4123;BME280;2075;51.062;6.920;2023-01-31T01:58:05;43473.84;;;-144.48;100.00
4123;BME280;2075;51.062;6.920;2023-01-31T02:00:52;41424.75;;;-144.48;100.00
4123;BME280;2075;51.062;6.920;2023-01-31T02:03:38;39121.03;;;-144.48;100.00
4123;BME280;2075;51.062;6.920;2023-01-31T02:06:25;37586.06;;;-144.48;100.00
4123;BME280;2075;51.062;6.920;2023-01-31T02:09:17;38353.47;;;-144.48;100.00
4123;BME280;2075;51.062;6.920;2023-01-31T02:12:04;41424.75;;;-144.48;100.00
4123;BME280;2075;51.062;6.920;2023-01-31T02:14:51;42449.16;;;-144.48;100.00
4123;BME280;2075;51.062;6.920;2023-01-31T02:17:37;43986.31;;;-144.48;100.00
4123;BME280;2075;51.062;6.920;2023-01-31T02:23:49;46036.97;;;-144.48;100.00
4123;BME280;2075;51.062;6.920;2023-01-31T02:26:59;43730.06;;;-144.48;100.00
4123;BME280;2075;51.062;6.920;2023-01-31T02:33:11;42705.31;;;-144.48;100.00
4123;BME280;2075;51.062;6.920;2023-01-31T02:36:05;43986.31;;;-144.48;100.00
4123;BME280;2075;51.062;6.920;2023-01-31T02:39:01;44242.59;;;-144.48;100.00
4123;BME280;2075;51.062;6.920;2023-01-31T02:41:52;43986.31;;;-144.48;100.00
4123;BME280;2075;51.062;6.920;2023-01-31T02:44:48;41680.84;;;-144.48;100.00
4123;BME280;2075;51.062;6.920;2023-01-31T02:47:55;42449.16;;;-144.48;100.00
4123;BME280;2075;51.062;6.920;2023-01-31T02:50:56;44498.88;;;-144.48;100.00
4123;BME280;2075;51.062;6.920;2023-01-31T02:53:48;45011.50;;;-144.48;100.00
4123;BME280;2075;51.062;6.920;2023-01-31T02:56:36;43986.31;;;-144.48;100.00
4123;BME280;2075;51.062;6.920;2023-01-31T02:59:24;44242.59;;;-144.48;100.00
4123;BME280;2075;51.062;6.920;2023-01-31T03:02:13;43986.31;;;-144.48;100.00
4123;BME280;2075;51.062;6.920;2023-01-31T03:04:59;42961.47;;;-144.48;100.00
4123;BME280;2075;51.062;6.920;2023-01-31T03:07:49;39632.81;;;-144.48;100.00
4123;BME280;2075;51.062;6.920;2023-01-31T03:10:48;39121.03;;;-144.48;100.00
4123;BME280;2075;51.062;6.920;2023-01-31T03:13:45;41168.72;;;-144.48;100.00
4123;BME280;2075;51.062;6.920;2023-01-31T03:16:39;40144.72;;;-144.48;100.00
4123;BME280;2075;51.062;6.920;2023-01-31T03:19:48;37586.06;;;-144.48;100.00
4123;BME280;2075;51.062;6.920;2023-01-31T03:22:37;32985.44;;;-144.48;100.00
4123;BME280;2075;51.062;6.920;2023-01-31T03:25:29;28646.22;;;-144.48;100.00
4123;BME280;2075;51.062;6.920;2023-01-31T03:28:22;22529.81;;;-144.48;100.00
4123;BME280;2075;51.062;6.920;2023-01-31T03:31:15;20748.00;;;-144.48;100.00
4123;BME280;2075;51.062;6.920;2023-01-31T03:34:04;21002.47;;;-144.48;100.00
4123;BME280;2075;51.062;6.920;2023-01-31T03:36:55;17441.41;;;-144.48;100.00
4123;BME280;2075;51.062;6.920;2023-01-31T03:39:53;15662.31;;;-144.48;100.00
4123;BME280;2075;51.062;6.920;2023-01-31T03:42:46;13630.22;;;-144.48;100.00
4123;BME280;2075;51.062;6.920;2023-01-31T03:45:41;12614.66;;;-144.48;100.00
4123;BME280;2075;51.062;6.920;2023-01-31T03:48:32;10077.09;;;-144.48;100.00
4123;BME280;2075;51.062;6.920;2023-01-31T03:51:23;6021.03;;;-144.48;100.00
4123;BME280;2075;51.062;6.920;2023-01-31T03:54:14;6021.03;;;-144.48;100.00
4123;BME280;2075;51.062;6.920;2023-01-31T03:57:05;2476.06;;;-144.48;100.00
4123;BME280;2075;51.062;6.920;2023-01-31T03:59:58;705.03;;;-144.48;100.00
4123;BME280;2075;51.062;6.920;2023-01-31T04:02:48;452.09;;;-144.48;100.00
4123;BME280;2075;51.062;6.920;2023-01-31T04:05:35;1210.94;;;-144.48;100.00
4123;BME280;2075;51.062;6.920;2023-01-31T04:08:21;-559.44;;;-144.48;100.00
4123;BME280;2075;51.062;6.920;2023-01-31T04:11:19;-559.44;;;-144.48;100.00
4123;BME280;2075;51.062;6.920;2023-01-31T04:14:05;-1570.63;;;-144.48;100.00
4123;BME280;2075;51.062;6.920;2023-01-31T04:16:52;-4097.28;;;-144.48;100.00
4123;BME280;2075;51.062;6.920;2023-01-31T04:19:38;-4854.91;;;-144.48;100.00
4123;BME280;2075;51.062;6.920;2023-01-31T04:22:23;-5359.88;;;-144.48;100.00
4123;BME280;2075;51.062;6.920;2023-01-31T04:25:09;-6117.19;;;-144.48;100.00
4123;BME280;2075;51.062;6.920;2023-01-31T04:27:55;-6117.19;;;-144.48;100.00
4123;BME280;2075;51.062;6.920;2023-01-31T04:30:40;-6621.97;;;-144.48;100.00
4123;BME280;2075;51.062;6.920;2023-01-31T04:33:27;-7379.00;;;-144.48;100.00
4123;BME280;2075;51.062;6.920;2023-01-31T04:36:12;-7883.59;;;-144.48;100.00
4123;BME280;2075;51.062;6.920;2023-01-31T04:38:58;-8640.34;;;-144.48;100.00
4123;BME280;2075;51.062;6.920;2023-01-31T04:41:44;-9144.72;;;-144.48;100.00
4123;BME280;2075;51.062;6.920;2023-01-31T04:44:29;-10153.28;;;-144.48;100.00
4123;BME280;2075;51.062;6.920;2023-01-31T04:47:15;-10405.38;;;-144.48;100.00
4123;BME280;2075;51.062;6.920;2023-01-31T04:50:02;-10657.44;;;-144.48;100.00
4123;BME280;2075;51.062;6.920;2023-01-31T04:52:48;-10657.44;;;-144.48;100.00
4123;BME280;2075;51.062;6.920;2023-01-31T04:55:34;-10657.44;;;-144.48;100.00
4123;BME280;2075;51.062;6.920;2023-01-31T04:58:20;-10405.38;;;-144.48;100.00
4123;BME280;2075;51.062;6.920;2023-01-31T05:01:07;-10405.38;;;-144.48;100.00
4123;BME280;2075;51.062;6.920;2023-01-31T05:03:53;-10657.44;;;-144.48;100.00
4123;BME280;2075;51.062;6.920;2023-01-31T05:06:39;-10909.50;;;-144.48;100.00
4123;BME280;2075;51.062;6.920;2023-01-31T05:09:25;-10909.50;;;-144.48;100.00
4123;BME280;2075;51.062;6.920;2023-01-31T05:12:11;-10405.38;;;-144.48;100.00
4123;BME280;2075;51.062;6.920;2023-01-31T05:14:56;-10405.38;;;-144.48;100.00
4123;BME280;2075;51.062;6.920;2023-01-31T05:17:41;-10909.50;;;-144.48;100.00
4123;BME280;2075;51.062;6.920;2023-01-31T05:20:27;-10909.50;;;-144.48;100.00
4123;BME280;2075;51.062;6.920;2023-01-31T05:23:15;-10657.44;;;-144.48;100.00
4123;BME280;2075;51.062;6.920;2023-01-31T05:26:01;-9649.03;;;-144.48;100.00
4123;BME280;2075;51.062;6.920;2023-01-31T05:28:46;-7631.31;;;-144.48;100.00
4123;BME280;2075;51.062;6.920;2023-01-31T05:31:32;-6874.34;;;-144.48;100.00
4123;BME280;2075;51.062;6.920;2023-01-31T05:34:18;-6117.19;;;-144.48;100.00
4123;BME280;2075;51.062;6.920;2023-01-31T05:37:04;-4854.91;;;-144.48;100.00
4123;BME280;2075;51.062;6.920;2023-01-31T05:39:52;-4097.28;;;-144.48;100.00
4123;BME280;2075;51.062;6.920;2023-01-31T05:42:38;-3339.50;;;-144.48;100.00
4123;BME280;2075;51.062;6.920;2023-01-31T05:45:23;-3086.84;;;-144.48;100.00
4123;BME280;2075;51.062;6.920;2023-01-31T05:48:09;-2834.19;;;-144.48;100.00
4123;BME280;2075;51.062;6.920;2023-01-31T05:50:55;-3844.69;;;-144.48;100.00
4123;BME280;2075;51.062;6.920;2023-01-31T05:53:40;-3339.50;;;-144.48;100.00
4123;BME280;2075;51.062;6.920;2023-01-31T05:56:27;-3086.84;;;-144.48;100.00
4123;BME280;2075;51.062;6.920;2023-01-31T05:59:13;-2328.84;;;-144.48;100.00
4123;BME280;2075;51.062;6.920;2023-01-31T06:01:58;-1317.84;;;-144.48;100.00
4123;BME280;2075;51.062;6.920;2023-01-31T06:04:44;-2076.13;;;-144.48;100.00
4123;BME280;2075;51.062;6.920;2023-01-31T06:07:30;-1823.38;;;-144.48;100.00
4123;BME280;2075;51.062;6.920;2023-01-31T06:10:16;-3592.09;;;-144.48;100.00
4123;BME280;2075;51.062;6.920;2023-01-31T06:13:03;-4097.28;;;-144.48;100.00
4123;BME280;2075;51.062;6.920;2023-01-31T06:15:50;-3339.50;;;-144.48;100.00
4123;BME280;2075;51.062;6.920;2023-01-31T06:18:36;-3086.84;;;-144.48;100.00
4123;BME280;2075;51.062;6.920;2023-01-31T06:21:22;-1823.38;;;-144.48;100.00
4123;BME280;2075;51.062;6.920;2023-01-31T06:24:11;-812.25;;;-144.48;100.00
4123;BME280;2075;51.062;6.920;2023-01-31T06:26:56;-559.44;;;-144.48;100.00
4123;BME280;2075;51.062;6.920;2023-01-31T06:29:43;-1317.84;;;-144.48;100.00
4123;BME280;2075;51.062;6.920;2023-01-31T06:32:29;-2076.13;;;-144.48;100.00
4123;BME280;2075;51.062;6.920;2023-01-31T06:35:15;-53.69;;;-144.48;100.00
4123;BME280;2075;51.062;6.920;2023-01-31T06:38:00;1969.97;;;-144.48;100.00
4123;BME280;2075;51.062;6.920;2023-01-31T06:40:49;1463.94;;;-144.48;100.00
4123;BME280;2075;51.062;6.920;2023-01-31T06:43:35;1716.94;;;-144.48;100.00
4123;BME280;2075;51.062;6.920;2023-01-31T06:46:22;2476.06;;;-144.48;100.00
4123;BME280;2075;51.062;6.920;2023-01-31T06:49:10;4248.06;;;-144.48;100.00
4123;BME280;2075;51.062;6.920;2023-01-31T06:51:56;5261.06;;;-144.48;100.00
4123;BME280;2075;51.062;6.920;2023-01-31T06:54:42;7288.00;;;-144.48;100.00
4123;BME280;2075;51.062;6.920;2023-01-31T06:57:27;6781.16;;;-144.48;100.00
4123;BME280;2075;51.062;6.920;2023-01-31T07:00:14;7034.56;;;-144.48;100.00
4123;BME280;2075;51.062;6.920;2023-01-31T07:03:02;10077.09;;;-144.48;100.00
4123;BME280;2075;51.062;6.920;2023-01-31T07:05:47;12107.00;;;-144.48;100.00
4123;BME280;2075;51.062;6.920;2023-01-31T07:08:33;12614.66;;;-144.48;100.00
4123;BME280;2075;51.062;6.920;2023-01-31T07:11:19;15154.19;;;-144.48;100.00
4123;BME280;2075;51.062;6.920;2023-01-31T07:14:04;16424.66;;;-144.48;100.00
4123;BME280;2075;51.062;6.920;2023-01-31T07:16:49;17187.19;;;-144.48;100.00
4123;BME280;2075;51.062;6.920;2023-01-31T07:19:36;21511.53;;;-144.48;100.00
4123;BME280;2075;51.062;6.920;2023-01-31T07:22:22;21002.47;;;-144.48;100.00
4123;BME280;2075;51.062;6.920;2023-01-31T07:25:08;23803.16;;;-144.48;100.00
4123;BME280;2075;51.062;6.920;2023-01-31T07:27:53;28901.31;;;-144.48;100.00
4123;BME280;2075;51.062;6.920;2023-01-31T07:30:39;30432.28;;;-144.48;100.00
4123;BME280;2075;51.062;6.920;2023-01-31T07:33:26;30432.28;;;-144.48;100.00
4123;BME280;2075;51.062;6.920;2023-01-31T07:36:15;30687.50;;;-144.48;100.00
4123;BME280;2075;51.062;6.920;2023-01-31T07:39:02;31963.94;;;-144.48;100.00
4123;BME280;2075;51.062;6.920;2023-01-31T07:41:49;35796.19;;;-144.48;100.00
4123;BME280;2075;51.062;6.920;2023-01-31T07:44:38;39121.03;;;-144.48;100.00
4123;BME280;2075;51.062;6.920;2023-01-31T07:47:24;45780.56;;;-144.48;100.00
4123;BME280;2075;51.062;6.920;2023-01-31T07:50:10;49628.63;;;-144.48;100.00
4123;BME280;2075;51.062;6.920;2023-01-31T07:52:58;56566.16;;;-144.48;100.00
4123;BME280;2075;51.062;6.920;2023-01-31T07:55:44;66612.16;;;-144.48;100.00
4123;BME280;2075;51.062;6.920;2023-01-31T07:58:30;74703.44;;;-144.48;100.00
4123;BME280;2075;51.062;6.920;2023-01-31T08:01:19;78673.34;;;-144.48;100.00
4123;BME280;2075;51.062;6.920;2023-01-31T08:04:38;85883.00;;;-144.48;100.00
4123;BME280;2075;51.062;6.920;2023-01-31T08:07:23;86620.81;;;-144.48;100.00
4123;BME280;2075;51.062;6.920;2023-01-31T08:10:12;87847.47;;;-144.48;100.00
4123;BME280;2075;51.062;6.920;2023-01-31T08:13:01;88054.34;;;-144.48;100.00
4123;BME280;2075;51.062;6.920;2023-01-31T08:15:47;89719.75;;;-144.48;100.00
4123;BME280;2075;51.062;6.920;2023-01-31T08:18:35;90251.38;;;-144.48;100.00
4123;BME280;2075;51.062;6.920;2023-01-31T08:21:21;92851.88;;;-144.48;100.00
4123;BME280;2075;51.062;6.920;2023-01-31T08:24:07;92878.28;;;-144.48;100.00
4123;BME280;2075;51.062;6.920;2023-01-31T08:26:53;92388.88;;;-144.48;100.00
4123;BME280;2075;51.062;6.920;2023-01-31T08:29:39;91036.81;;;-144.48;100.00
4123;BME280;2075;51.062;6.920;2023-01-31T08:32:24;91804.16;;;-144.48;100.00
4123;BME280;2075;51.062;6.920;2023-01-31T08:35:10;92090.41;;;-144.48;100.00
4123;BME280;2075;51.062;6.920;2023-01-31T08:37:55;93132.16;;;-144.48;100.00
4123;BME280;2075;51.062;6.920;2023-01-31T08:40:41;93388.06;;;-144.48;100.00
4123;BME280;2075;51.062;6.920;2023-01-31T08:43:27;93128.09;;;-144.48;100.00
4123;BME280;2075;51.062;6.920;2023-01-31T08:46:13;93201.22;;;-144.48;100.00
4123;BME280;2075;51.062;6.920;2023-01-31T08:48:59;93278.38;;;-144.48;100.00
4123;BME280;2075;51.062;6.920;2023-01-31T08:51:45;93272.28;;;-144.48;100.00
4123;BME280;2075;51.062;6.920;2023-01-31T08:54:34;93148.41;;;-144.48;100.00
4123;BME280;2075;51.062;6.920;2023-01-31T08:57:19;93341.34;;;-144.48;100.00
4123;BME280;2075;51.062;6.920;2023-01-31T09:00:07;93124.03;;;-144.48;100.00
4123;BME280;2075;51.062;6.920;2023-01-31T09:02:54;93245.91;;;-144.48;100.00
4123;BME280;2075;51.062;6.920;2023-01-31T09:05:39;92937.19;;;-144.48;100.00
4123;BME280;2075;51.062;6.920;2023-01-31T09:08:25;92202.09;;;-144.48;100.00
4123;BME280;2075;51.062;6.920;2023-01-31T09:11:11;92459.97;;;-144.48;100.00
4123;BME280;2075;51.062;6.920;2023-01-31T09:14:02;90289.94;;;-144.48;100.00
4123;BME280;2075;51.062;6.920;2023-01-31T09:16:48;85345.97;;;-144.48;100.00
4123;BME280;2075;51.062;6.920;2023-01-31T09:19:34;72522.38;;;-144.48;100.00
4123;BME280;2075;51.062;6.920;2023-01-31T09:22:20;65838.34;;;-144.48;100.00
4123;BME280;2075;51.062;6.920;2023-01-31T09:25:07;66612.16;;;-144.48;100.00
4123;BME280;2075;51.062;6.920;2023-01-31T09:27:52;69192.84;;;-144.48;100.00
4123;BME280;2075;51.062;6.920;2023-01-31T09:30:41;72009.59;;;-144.48;100.00
4123;BME280;2075;51.062;6.920;2023-01-31T09:33:30;67644.19;;;-144.48;100.00
4123;BME280;2075;51.062;6.920;2023-01-31T09:36:17;63517.94;;;-144.48;100.00
4123;BME280;2075;51.062;6.920;2023-01-31T09:39:03;55280.38;;;-144.48;100.00
4123;BME280;2075;51.062;6.920;2023-01-31T09:41:50;49628.63;;;-144.48;100.00
4123;BME280;2075;51.062;6.920;2023-01-31T09:44:39;43217.66;;;-144.48;100.00
4123;BME280;2075;51.062;6.920;2023-01-31T09:47:28;38097.66;;;-144.48;100.00
4123;BME280;2075;51.062;6.920;2023-01-31T09:50:20;33496.31;;;-144.48;100.00
4123;BME280;2075;51.062;6.920;2023-01-31T09:53:09;32219.28;;;-144.48;100.00
4123;BME280;2075;51.062;6.920;2023-01-31T09:56:11;40400.69;;;-144.48;100.00
4123;BME280;2075;51.062;6.920;2023-01-31T09:59:06;47062.78;;;-144.48;100.00
4123;BME280;2075;51.062;6.920;2023-01-31T10:01:59;54766.19;;;-144.48;100.00
4123;BME280;2075;51.062;6.920;2023-01-31T10:05:03;54509.13;;;-144.48;100.00
4123;BME280;2075;51.062;6.920;2023-01-31T10:08:00;54766.19;;;-144.48;100.00
4123;BME280;2075;51.062;6.920;2023-01-31T10:10:50;55023.25;;;-144.48;100.00
4123;BME280;2075;51.062;6.920;2023-01-31T10:13:40;55280.38;;;-144.48;100.00
4123;BME280;2075;51.062;6.920;2023-01-31T10:16:31;57337.88;;;-144.48;100.00
4123;BME280;2075;51.062;6.920;2023-01-31T10:19:22;60169.00;;;-144.48;100.00
4123;BME280;2075;51.062;6.920;2023-01-31T10:22:17;66354.19;;;-144.48;100.00
4123;BME280;2075;51.062;6.920;2023-01-31T10:25:16;77593.50;;;-144.48;100.00
4123;BME280;2075;51.062;6.920;2023-01-31T10:28:10;83449.75;;;-144.48;100.00
4123;BME280;2075;51.062;6.920;2023-01-31T10:30:59;83763.69;;;-144.48;100.00
4123;BME280;2075;51.062;6.920;2023-01-31T10:33:50;85560.78;;;-144.48;100.00
4123;BME280;2075;51.062;6.920;2023-01-31T10:36:41;86014.75;;;-144.48;100.00
4123;BME280;2075;51.062;6.920;2023-01-31T10:39:32;79684.75;;;-144.48;100.00
4123;BME280;2075;51.062;6.920;2023-01-31T10:42:26;81020.25;;;-144.48;100.00
4123;BME280;2075;51.062;6.920;2023-01-31T10:45:16;85854.63;;;-144.48;100.00
4123;BME280;2075;51.062;6.920;2023-01-31T10:48:12;85913.41;;;-144.48;100.00
4123;BME280;2075;51.062;6.920;2023-01-31T10:51:06;87989.44;;;-144.48;100.00
4123;BME280;2075;51.062;6.920;2023-01-31T10:54:08;89171.94;;;-144.48;99.81
4123;BME280;2075;51.062;6.920;2023-01-31T10:56:59;88873.75;;;-144.48;99.70
4123;BME280;2075;51.062;6.920;2023-01-31T10:59:47;89358.59;;;-144.48;99.21
4123;BME280;2075;51.062;6.920;2023-01-31T11:02:34;90318.34;;;-144.48;98.74
4123;BME280;2075;51.062;6.920;2023-01-31T11:05:22;91621.44;;;-144.48;97.85
4123;BME280;2075;51.062;6.920;2023-01-31T11:08:20;92569.63;;;-144.48;96.97
4123;BME280;2075;51.062;6.920;2023-01-31T11:11:08;93164.66;;;-144.48;95.83
4123;BME280;2075;51.062;6.920;2023-01-31T11:13:57;93308.84;;;-144.48;96.16
4123;BME280;2075;51.062;6.920;2023-01-31T11:16:46;92484.34;;;-144.48;97.30
4123;BME280;2075;51.062;6.920;2023-01-31T11:19:36;92256.91;;;-144.48;97.76
4123;BME280;2075;51.062;6.920;2023-01-31T11:22:27;92807.22;;;-144.48;96.90
4123;BME280;2075;51.062;6.920;2023-01-31T11:25:18;92646.78;;;-144.48;97.09
4123;BME280;2075;51.062;6.920;2023-01-31T11:28:18;92880.31;;;-144.48;96.43
4123;BME280;2075;51.062;6.920;2023-01-31T11:31:07;92269.09;;;-144.48;97.51
4123;BME280;2075;51.062;6.920;2023-01-31T11:34:05;91765.56;;;-144.48;97.92
4123;BME280;2075;51.062;6.920;2023-01-31T11:37:04;91235.72;;;-144.48;98.52
4123;BME280;2075;51.062;6.920;2023-01-31T11:39:54;90265.59;;;-144.48;99.26
4123;BME280;2075;51.062;6.920;2023-01-31T11:42:50;87796.78;;;-144.48;100.00
4123;BME280;2075;51.062;6.920;2023-01-31T11:45:36;84288.34;;;-144.48;100.00
4123;BME280;2075;51.062;6.920;2023-01-31T11:48:28;85775.59;;;-144.48;100.00
4123;BME280;2075;51.062;6.920;2023-01-31T11:51:25;87306.06;;;-144.48;100.00
4123;BME280;2075;51.062;6.920;2023-01-31T11:54:17;88693.22;;;-144.48;99.63
4123;BME280;2075;51.062;6.920;2023-01-31T11:57:13;88115.19;;;-144.48;100.00
4123;BME280;2075;51.062;6.920;2023-01-31T12:00:02;85836.41;;;-144.48;100.00
4123;BME280;2075;51.062;6.920;2023-01-31T12:03:00;83656.34;;;-144.48;100.00
4123;BME280;2075;51.062;6.920;2023-01-31T12:05:50;82026.25;;;-144.48;100.00
4123;BME280;2075;51.062;6.920;2023-01-31T12:08:39;80061.06;;;-144.48;100.00
4123;BME280;2075;51.062;6.920;2023-01-31T12:11:29;81894.66;;;-144.48;100.00
4123;BME280;2075;51.062;6.920;2023-01-31T12:14:21;80917.03;;;-144.48;100.00
4123;BME280;2075;51.062;6.920;2023-01-31T12:17:11;79595.72;;;-144.48;100.00
4123;BME280;2075;51.062;6.920;2023-01-31T12:20:08;79164.84;;;-144.48;100.00
4123;BME280;2075;51.062;6.920;2023-01-31T12:23:17;75091.34;;;-144.48;100.00
4123;BME280;2075;51.062;6.920;2023-01-31T12:26:13;67902.25;;;-144.48;100.00
4123;BME280;2075;51.062;6.920;2023-01-31T12:29:20;65322.56;;;-144.48;100.00
4123;BME280;2075;51.062;6.920;2023-01-31T12:32:36;66870.13;;;-144.48;100.00
4123;BME280;2075;51.062;6.920;2023-01-31T12:35:40;66354.19;;;-144.48;100.00
4123;BME280;2075;51.062;6.920;2023-01-31T12:38:40;64806.84;;;-144.48;100.00
4123;BME280;2075;51.062;6.920;2023-01-31T12:41:31;68418.44;;;-144.48;100.00
4123;BME280;2075;51.062;6.920;2023-01-31T12:44:42;70076.34;;;-144.48;100.00
4123;BME280;2075;51.062;6.920;2023-01-31T12:47:44;61714.25;;;-144.48;100.00
4123;BME280;2075;51.062;6.920;2023-01-31T12:50:39;51682.72;;;-144.48;100.00
4123;BME280;2075;51.062;6.920;2023-01-31T12:53:54;49628.63;;;-144.48;100.00
4123;BME280;2075;51.062;6.920;2023-01-31T12:56:54;45267.84;;;-144.48;100.00
4123;BME280;2075;51.062;6.920;2023-01-31T12:59:51;40656.66;;;-144.48;100.00
4123;BME280;2075;51.062;6.920;2023-01-31T13:02:44;38609.28;;;-144.48;100.00
4123;BME280;2075;51.062;6.920;2023-01-31T13:05:41;39376.91;;;-144.48;100.00
4123;BME280;2075;51.062;6.920;2023-01-31T13:08:29;39632.81;;;-144.48;100.00
4123;BME280;2075;51.062;6.920;2023-01-31T13:11:19;37841.84;;;-144.48;100.00
4123;BME280;2075;51.062;6.920;2023-01-31T13:14:12;37841.84;;;-144.48;100.00
4123;BME280;2075;51.062;6.920;2023-01-31T13:17:01;36563.16;;;-144.48;100.00
4123;BME280;2075;51.062;6.920;2023-01-31T13:19:49;35284.97;;;-144.48;100.00
4123;BME280;2075;51.062;6.920;2023-01-31T13:22:44;33240.88;;;-144.48;100.00
4123;BME280;2075;51.062;6.920;2023-01-31T13:25:36;31708.63;;;-144.48;100.00
4123;BME280;2075;51.062;6.920;2023-01-31T13:28:25;29666.69;;;-144.48;100.00
4123;BME280;2075;51.062;6.920;2023-01-31T13:31:19;27371.03;;;-144.48;100.00
4123;BME280;2075;51.062;6.920;2023-01-31T13:34:12;23803.16;;;-144.48;100.00
4123;BME280;2075;51.062;6.920;2023-01-31T13:37:01;22529.81;;;-144.48;100.00
4123;BME280;2075;51.062;6.920;2023-01-31T13:39:50;20748.00;;;-144.48;100.00
4123;BME280;2075;51.062;6.920;2023-01-31T13:42:38;20748.00;;;-144.48;100.00
4123;BME280;2075;51.062;6.920;2023-01-31T13:45:27;17695.66;;;-144.48;100.00
4123;BME280;2075;51.062;6.920;2023-01-31T13:48:24;10330.75;;;-144.48;100.00
4123;BME280;2075;51.062;6.920;2023-01-31T13:51:15;2729.16;;;-144.48;100.00
4123;BME280;2075;51.062;6.920;2023-01-31T13:54:06;-2328.84;;;-144.48;100.00
4123;BME280;2075;51.062;6.920;2023-01-31T13:57:01;-5359.88;;;-144.48;100.00
4123;BME280;2075;51.062;6.920;2023-01-31T13:59:52;-7883.59;;;-144.48;100.00
4123;BME280;2075;51.062;6.920;2023-01-31T14:02:58;-9901.19;;;-144.48;100.00
4123;BME280;2075;51.062;6.920;2023-01-31T14:05:56;-10909.50;;;-144.48;100.00
4123;BME280;2075;51.062;6.920;2023-01-31T14:08:57;-11667.00;;;-144.48;100.00
4123;BME280;2075;51.062;6.920;2023-01-31T14:11:55;-11667.00;;;-144.48;100.00
4123;BME280;2075;51.062;6.920;2023-01-31T14:14:44;-11667.00;;;-144.48;100.00
4123;BME280;2075;51.062;6.920;2023-01-31T14:17:57;-11667.00;;;-144.48;100.00
4123;BME280;2075;51.062;6.920;2023-01-31T14:21:00;-11667.00;;;-144.48;100.00
4123;BME280;2075;51.062;6.920;2023-01-31T14:24:53;-11667.00;;;-144.48;100.00
4123;BME280;2075;51.062;6.920;2023-01-31T14:27:33;-11667.00;;;-144.48;100.00
4123;BME280;2075;51.062;6.920;2023-01-31T14:30:26;-11667.00;;;-144.48;100.00
4123;BME280;2075;51.062;6.920;2023-01-31T14:33:24;-11667.00;;;-144.48;100.00
4123;BME280;2075;51.062;6.920;2023-01-31T14:43:22;-11667.00;;;-144.48;100.00
4123;BME280;2075;51.062;6.920;2023-01-31T14:49:52;-11667.00;;;-144.48;100.00
4123;BME280;2075;51.062;6.920;2023-01-31T14:52:55;-11667.00;;;-144.48;100.00
4123;BME280;2075;51.062;6.920;2023-01-31T14:55:58;-11667.00;;;-144.48;100.00
4123;BME280;2075;51.062;6.920;2023-01-31T14:58:50;-11667.00;;;-144.48;100.00
4123;BME280;2075;51.062;6.920;2023-01-31T15:01:37;-11667.00;;;-144.48;100.00
4123;BME280;2075;51.062;6.920;2023-01-31T15:04:25;-11667.00;;;-144.48;100.00
4123;BME280;2075;51.062;6.920;2023-01-31T15:07:15;-11667.00;;;-144.48;100.00